sensor_id;sensor_type;location;lat;lon;timestamp;temperature;humidity
29093;DHT22;16167;48.768;14.984;2023-04-25T00:00:24;6.80;1.00
29093;DHT22;16167;48.768;14.984;2023-04-25T00:02:52;6.80;1.00
29093;DHT22;16167;48.768;14.984;2023-04-25T00:05:21;6.80;1.00
29093;DHT22;16167;48.768;14.984;2023-04-25T00:07:50;6.90;1.00
29093;DHT22;16167;48.768;14.984;2023-04-25T00:10:18;6.90;1.00
29093;DHT22;16167;48.768;14.984;2023-04-25T00:12:45;6.90;1.00
29093;DHT22;16167;48.768;14.984;2023-04-25T00:15:14;6.90;1.00
29093;DHT22;16167;48.768;14.984;2023-04-25T00:17:42;6.90;1.00
29093;DHT22;16167;48.768;14.984;2023-04-25T00:20:12;6.80;1.00
29093;DHT22;16167;48.768;14.984;2023-04-25T00:22:41;6.80;1.00
29093;DHT22;16167;48.768;14.984;2023-04-25T00:25:09;6.70;1.00
29093;DHT22;16167;48.768;14.984;2023-04-25T00:27:37;6.70;1.00
29093;DHT22;16167;48.768;14.984;2023-04-25T00:30:06;6.70;1.00
29093;DHT22;16167;48.768;14.984;2023-04-25T00:32:34;6.70;1.00
29093;DHT22;16167;48.768;14.984;2023-04-25T00:35:01;6.60;1.00
29093;DHT22;16167;48.768;14.984;2023-04-25T00:37:29;6.60;1.00
29093;DHT22;16167;48.768;14.984;2023-04-25T00:39:59;6.60;1.00
29093;DHT22;16167;48.768;14.984;2023-04-25T00:42:26;6.50;1.00
29093;DHT22;16167;48.768;14.984;2023-04-25T00:44:54;6.50;1.00
29093;DHT22;16167;48.768;14.984;2023-04-25T00:47:23;6.50;1.00
29093;DHT22;16167;48.768;14.984;2023-04-25T00:49:51;6.50;1.00
29093;DHT22;16167;48.768;14.984;2023-04-25T00:52:19;6.40;1.00
29093;DHT22;16167;48.768;14.984;2023-04-25T00:54:48;6.40;1.00
29093;DHT22;16167;48.768;14.984;2023-04-25T00:57:17;6.40;1.00
29093;DHT22;16167;48.768;14.984;2023-04-25T00:59:45;6.30;1.00
29093;DHT22;16167;48.768;14.984;2023-04-25T01:02:13;6.30;1.00
29093;DHT22;16167;48.768;14.984;2023-04-25T01:04:41;6.30;1.00
29093;DHT22;16167;48.768;14.984;2023-04-25T01:07:10;6.30;1.00
29093;DHT22;16167;48.768;14.984;2023-04-25T01:09:38;6.20;1.00
29093;DHT22;16167;48.768;14.984;2023-04-25T01:12:06;6.20;1.00
29093;DHT22;16167;48.768;14.984;2023-04-25T01:14:35;6.10;1.00
29093;DHT22;16167;48.768;14.984;2023-04-25T01:17:03;6.10;1.00
29093;DHT22;16167;48.768;14.984;2023-04-25T01:19:32;6.00;1.00
29093;DHT22;16167;48.768;14.984;2023-04-25T01:22:01;6.00;1.00
29093;DHT22;16167;48.768;14.984;2023-04-25T01:24:30;5.90;1.00
29093;DHT22;16167;48.768;14.984;2023-04-25T01:26:58;5.90;1.00
29093;DHT22;16167;48.768;14.984;2023-04-25T01:29:27;5.80;1.00
29093;DHT22;16167;48.768;14.984;2023-04-25T01:31:55;5.70;3.50
29093;DHT22;16167;48.768;14.984;2023-04-25T01:34:25;5.60;4.80
29093;DHT22;16167;48.768;14.984;2023-04-25T01:36:53;5.50;11.30
29093;DHT22;16167;48.768;14.984;2023-04-25T01:39:23;5.40;14.10
29093;DHT22;16167;48.768;14.984;2023-04-25T01:41:51;5.30;19.00
29093;DHT22;16167;48.768;14.984;2023-04-25T01:44:19;5.30;19.90
29093;DHT22;16167;48.768;14.984;2023-04-25T01:46:47;5.10;17.90
29093;DHT22;16167;48.768;14.984;2023-04-25T01:49:15;5.10;21.00
29093;DHT22;16167;48.768;14.984;2023-04-25T01:51:43;5.00;21.80
29093;DHT22;16167;48.768;14.984;2023-04-25T01:54:11;5.00;21.10
29093;DHT22;16167;48.768;14.984;2023-04-25T01:56:41;4.90;17.00
29093;DHT22;16167;48.768;14.984;2023-04-25T01:59:09;4.80;20.00
29093;DHT22;16167;48.768;14.984;2023-04-25T02:01:37;4.80;27.00
29093;DHT22;16167;48.768;14.984;2023-04-25T02:04:05;4.70;28.80
29093;DHT22;16167;48.768;14.984;2023-04-25T02:06:33;4.70;27.30
29093;DHT22;16167;48.768;14.984;2023-04-25T02:09:01;4.70;25.20
29093;DHT22;16167;48.768;14.984;2023-04-25T02:11:29;4.70;34.20
29093;DHT22;16167;48.768;14.984;2023-04-25T02:13:58;4.70;31.70
29093;DHT22;16167;48.768;14.984;2023-04-25T02:16:26;4.70;36.90
29093;DHT22;16167;48.768;14.984;2023-04-25T02:18:54;4.50;41.60
29093;DHT22;16167;48.768;14.984;2023-04-25T02:21:22;4.40;42.80
29093;DHT22;16167;48.768;14.984;2023-04-25T02:23:50;4.40;43.20
29093;DHT22;16167;48.768;14.984;2023-04-25T02:26:19;4.30;42.80
29093;DHT22;16167;48.768;14.984;2023-04-25T02:28:47;4.20;42.30
29093;DHT22;16167;48.768;14.984;2023-04-25T02:31:17;4.20;42.60
29093;DHT22;16167;48.768;14.984;2023-04-25T02:33:44;4.10;39.50
29093;DHT22;16167;48.768;14.984;2023-04-25T02:36:12;4.00;50.00
29093;DHT22;16167;48.768;14.984;2023-04-25T02:38:41;3.90;53.60
29093;DHT22;16167;48.768;14.984;2023-04-25T02:41:09;3.80;57.20
29093;DHT22;16167;48.768;14.984;2023-04-25T02:43:37;3.80;57.20
29093;DHT22;16167;48.768;14.984;2023-04-25T02:46:05;3.80;54.60
29093;DHT22;16167;48.768;14.984;2023-04-25T02:48:34;3.60;59.00
29093;DHT22;16167;48.768;14.984;2023-04-25T02:51:02;3.60;64.40
29093;DHT22;16167;48.768;14.984;2023-04-25T02:53:30;3.50;66.20
29093;DHT22;16167;48.768;14.984;2023-04-25T02:55:58;3.50;68.00
29093;DHT22;16167;48.768;14.984;2023-04-25T02:58:25;3.50;68.10
29093;DHT22;16167;48.768;14.984;2023-04-25T03:00:53;3.40;71.20
29093;DHT22;16167;48.768;14.984;2023-04-25T03:03:21;3.30;72.50
29093;DHT22;16167;48.768;14.984;2023-04-25T03:05:51;3.30;68.60
29093;DHT22;16167;48.768;14.984;2023-04-25T03:08:19;3.20;69.30
29093;DHT22;16167;48.768;14.984;2023-04-25T03:10:47;3.20;69.00
29093;DHT22;16167;48.768;14.984;2023-04-25T03:13:16;3.10;67.00
29093;DHT22;16167;48.768;14.984;2023-04-25T03:15:44;3.10;75.70
29093;DHT22;16167;48.768;14.984;2023-04-25T03:18:12;3.10;74.80
29093;DHT22;16167;48.768;14.984;2023-04-25T03:20:40;3.00;76.20
29093;DHT22;16167;48.768;14.984;2023-04-25T03:23:09;3.00;78.20
29093;DHT22;16167;48.768;14.984;2023-04-25T03:25:37;3.00;71.00
29093;DHT22;16167;48.768;14.984;2023-04-25T03:28:05;3.00;79.30
29093;DHT22;16167;48.768;14.984;2023-04-25T03:30:33;3.00;79.70
29093;DHT22;16167;48.768;14.984;2023-04-25T03:33:01;2.90;76.70
29093;DHT22;16167;48.768;14.984;2023-04-25T03:35:29;2.90;82.10
29093;DHT22;16167;48.768;14.984;2023-04-25T03:37:57;2.90;84.20
29093;DHT22;16167;48.768;14.984;2023-04-25T03:40:26;2.90;87.10
29093;DHT22;16167;48.768;14.984;2023-04-25T03:42:54;2.80;87.00
29093;DHT22;16167;48.768;14.984;2023-04-25T03:45:22;2.70;80.10
29093;DHT22;16167;48.768;14.984;2023-04-25T03:47:50;2.80;86.70
29093;DHT22;16167;48.768;14.984;2023-04-25T03:50:18;2.80;91.80
29093;DHT22;16167;48.768;14.984;2023-04-25T03:52:46;2.70;91.80
29093;DHT22;16167;48.768;14.984;2023-04-25T03:55:14;2.80;95.30
29093;DHT22;16167;48.768;14.984;2023-04-25T03:57:43;2.70;92.50
29093;DHT22;16167;48.768;14.984;2023-04-25T04:00:11;2.80;92.50
29093;DHT22;16167;48.768;14.984;2023-04-25T04:02:40;2.80;96.40
29093;DHT22;16167;48.768;14.984;2023-04-25T04:05:10;2.80;96.30
29093;DHT22;16167;48.768;14.984;2023-04-25T04:07:39;2.80;97.90
29093;DHT22;16167;48.768;14.984;2023-04-25T04:10:09;2.80;94.10
29093;DHT22;16167;48.768;14.984;2023-04-25T04:12:37;2.90;94.30
29093;DHT22;16167;48.768;14.984;2023-04-25T04:15:07;3.00;92.30
29093;DHT22;16167;48.768;14.984;2023-04-25T04:17:35;3.00;90.90
29093;DHT22;16167;48.768;14.984;2023-04-25T04:20:03;3.00;90.00
29093;DHT22;16167;48.768;14.984;2023-04-25T04:22:32;3.00;93.00
29093;DHT22;16167;48.768;14.984;2023-04-25T04:25:00;3.10;92.20
29093;DHT22;16167;48.768;14.984;2023-04-25T04:27:29;3.10;91.90
29093;DHT22;16167;48.768;14.984;2023-04-25T04:29:57;3.10;94.10
29093;DHT22;16167;48.768;14.984;2023-04-25T04:32:26;3.10;94.20
29093;DHT22;16167;48.768;14.984;2023-04-25T04:34:54;3.10;93.00
29093;DHT22;16167;48.768;14.984;2023-04-25T04:37:22;3.20;93.30
29093;DHT22;16167;48.768;14.984;2023-04-25T04:39:50;3.30;92.40
29093;DHT22;16167;48.768;14.984;2023-04-25T04:42:18;3.30;92.80
29093;DHT22;16167;48.768;14.984;2023-04-25T04:44:47;3.30;94.90
29093;DHT22;16167;48.768;14.984;2023-04-25T04:47:15;3.40;94.50
29093;DHT22;16167;48.768;14.984;2023-04-25T04:49:44;3.50;94.80
29093;DHT22;16167;48.768;14.984;2023-04-25T04:52:12;3.50;95.20
29093;DHT22;16167;48.768;14.984;2023-04-25T04:54:40;3.60;96.80
29093;DHT22;16167;48.768;14.984;2023-04-25T04:57:08;3.70;93.70
29093;DHT22;16167;48.768;14.984;2023-04-25T04:59:36;3.90;89.50
29093;DHT22;16167;48.768;14.984;2023-04-25T05:02:04;4.00;82.90
29093;DHT22;16167;48.768;14.984;2023-04-25T05:04:32;4.00;84.90
29093;DHT22;16167;48.768;14.984;2023-04-25T05:07:01;4.10;85.60
29093;DHT22;16167;48.768;14.984;2023-04-25T05:09:29;4.10;84.90
29093;DHT22;16167;48.768;14.984;2023-04-25T05:11:57;4.20;85.00
29093;DHT22;16167;48.768;14.984;2023-04-25T05:14:25;4.30;76.00
29093;DHT22;16167;48.768;14.984;2023-04-25T05:16:53;4.40;77.80
29093;DHT22;16167;48.768;14.984;2023-04-25T05:19:21;4.60;76.60
29093;DHT22;16167;48.768;14.984;2023-04-25T05:21:50;4.70;74.30
29093;DHT22;16167;48.768;14.984;2023-04-25T05:24:19;4.80;62.70
29093;DHT22;16167;48.768;14.984;2023-04-25T05:26:47;5.00;58.40
29093;DHT22;16167;48.768;14.984;2023-04-25T05:29:15;5.10;56.40
29093;DHT22;16167;48.768;14.984;2023-04-25T05:31:43;5.20;52.40
29093;DHT22;16167;48.768;14.984;2023-04-25T05:34:11;5.40;50.90
29093;DHT22;16167;48.768;14.984;2023-04-25T05:36:39;5.60;39.70
29093;DHT22;16167;48.768;14.984;2023-04-25T05:39:07;5.90;39.90
29093;DHT22;16167;48.768;14.984;2023-04-25T05:41:36;6.10;30.50
29093;DHT22;16167;48.768;14.984;2023-04-25T05:44:04;6.40;16.20
29093;DHT22;16167;48.768;14.984;2023-04-25T05:46:32;6.60;15.80
29093;DHT22;16167;48.768;14.984;2023-04-25T05:49:00;6.70;3.80
29093;DHT22;16167;48.768;14.984;2023-04-25T05:51:28;6.80;1.80
29093;DHT22;16167;48.768;14.984;2023-04-25T05:53:56;6.90;1.90
29093;DHT22;16167;48.768;14.984;2023-04-25T05:56:24;7.00;4.50
29093;DHT22;16167;48.768;14.984;2023-04-25T05:58:53;7.10;4.20
29093;DHT22;16167;48.768;14.984;2023-04-25T06:01:21;7.20;1.00
29093;DHT22;16167;48.768;14.984;2023-04-25T06:03:49;7.30;3.30
29093;DHT22;16167;48.768;14.984;2023-04-25T06:06:19;7.40;1.00
29093;DHT22;16167;48.768;14.984;2023-04-25T06:08:47;7.60;1.00
29093;DHT22;16167;48.768;14.984;2023-04-25T06:11:15;7.70;1.00
29093;DHT22;16167;48.768;14.984;2023-04-25T06:13:43;7.70;1.00
29093;DHT22;16167;48.768;14.984;2023-04-25T06:16:12;7.80;1.00
29093;DHT22;16167;48.768;14.984;2023-04-25T06:18:40;7.90;1.00
29093;DHT22;16167;48.768;14.984;2023-04-25T06:21:08;8.00;1.00
29093;DHT22;16167;48.768;14.984;2023-04-25T06:23:36;8.20;1.00
29093;DHT22;16167;48.768;14.984;2023-04-25T06:26:04;8.50;1.00
29093;DHT22;16167;48.768;14.984;2023-04-25T06:28:32;8.80;1.00
29093;DHT22;16167;48.768;14.984;2023-04-25T06:31:00;9.00;1.00
29093;DHT22;16167;48.768;14.984;2023-04-25T06:33:29;9.00;1.00
29093;DHT22;16167;48.768;14.984;2023-04-25T06:35:57;9.10;1.00
29093;DHT22;16167;48.768;14.984;2023-04-25T06:38:25;9.10;1.00
29093;DHT22;16167;48.768;14.984;2023-04-25T06:40:53;9.30;1.00
29093;DHT22;16167;48.768;14.984;2023-04-25T06:43:21;9.40;1.00
29093;DHT22;16167;48.768;14.984;2023-04-25T06:45:48;9.50;1.00
29093;DHT22;16167;48.768;14.984;2023-04-25T06:48:17;9.50;1.00
29093;DHT22;16167;48.768;14.984;2023-04-25T06:50:46;9.50;1.00
29093;DHT22;16167;48.768;14.984;2023-04-25T06:53:14;9.60;1.00
29093;DHT22;16167;48.768;14.984;2023-04-25T06:55:42;9.60;1.00
29093;DHT22;16167;48.768;14.984;2023-04-25T06:58:09;9.70;1.00
29093;DHT22;16167;48.768;14.984;2023-04-25T07:00:37;9.70;1.00
29093;DHT22;16167;48.768;14.984;2023-04-25T07:03:05;9.70;1.00
29093;DHT22;16167;48.768;14.984;2023-04-25T07:05:33;9.80;1.00
29093;DHT22;16167;48.768;14.984;2023-04-25T07:08:03;9.80;1.00
29093;DHT22;16167;48.768;14.984;2023-04-25T07:10:30;9.90;1.00
29093;DHT22;16167;48.768;14.984;2023-04-25T07:12:58;9.90;1.00
29093;DHT22;16167;48.768;14.984;2023-04-25T07:15:26;10.00;1.00
29093;DHT22;16167;48.768;14.984;2023-04-25T07:17:54;10.00;1.00
29093;DHT22;16167;48.768;14.984;2023-04-25T07:20:22;10.10;1.00
29093;DHT22;16167;48.768;14.984;2023-04-25T07:22:50;10.10;1.00
29093;DHT22;16167;48.768;14.984;2023-04-25T07:25:19;10.00;1.00
29093;DHT22;16167;48.768;14.984;2023-04-25T07:27:47;10.00;1.00
29093;DHT22;16167;48.768;14.984;2023-04-25T07:30:15;10.00;1.00
29093;DHT22;16167;48.768;14.984;2023-04-25T07:32:43;10.00;1.00
29093;DHT22;16167;48.768;14.984;2023-04-25T07:35:12;9.90;1.00
29093;DHT22;16167;48.768;14.984;2023-04-25T07:37:39;9.90;1.00
29093;DHT22;16167;48.768;14.984;2023-04-25T07:40:08;9.80;1.00
29093;DHT22;16167;48.768;14.984;2023-04-25T07:42:38;10.20;1.00
29093;DHT22;16167;48.768;14.984;2023-04-25T07:45:06;10.50;1.00
29093;DHT22;16167;48.768;14.984;2023-04-25T07:47:35;10.90;1.00
29093;DHT22;16167;48.768;14.984;2023-04-25T07:50:05;11.20;1.00
29093;DHT22;16167;48.768;14.984;2023-04-25T07:52:33;11.60;1.60
29093;DHT22;16167;48.768;14.984;2023-04-25T07:55:01;12.10;1.00
29093;DHT22;16167;48.768;14.984;2023-04-25T07:57:29;12.40;1.00
29093;DHT22;16167;48.768;14.984;2023-04-25T07:59:59;12.70;3.70
29093;DHT22;16167;48.768;14.984;2023-04-25T08:02:27;12.70;2.80
29093;DHT22;16167;48.768;14.984;2023-04-25T08:04:55;12.60;2.70
29093;DHT22;16167;48.768;14.984;2023-04-25T08:07:23;12.60;4.60
29093;DHT22;16167;48.768;14.984;2023-04-25T08:09:51;12.50;3.50
29093;DHT22;16167;48.768;14.984;2023-04-25T08:12:19;12.40;4.00
29093;DHT22;16167;48.768;14.984;2023-04-25T08:14:49;12.20;4.10
29093;DHT22;16167;48.768;14.984;2023-04-25T08:17:18;12.20;3.70
29093;DHT22;16167;48.768;14.984;2023-04-25T08:19:46;12.20;5.40
29093;DHT22;16167;48.768;14.984;2023-04-25T08:22:14;12.20;5.60
29093;DHT22;16167;48.768;14.984;2023-04-25T08:24:42;12.20;5.30
29093;DHT22;16167;48.768;14.984;2023-04-25T08:27:10;12.10;5.30
29093;DHT22;16167;48.768;14.984;2023-04-25T08:29:38;12.30;7.00
29093;DHT22;16167;48.768;14.984;2023-04-25T08:32:06;12.30;7.10
29093;DHT22;16167;48.768;14.984;2023-04-25T08:34:36;12.30;6.30
29093;DHT22;16167;48.768;14.984;2023-04-25T08:37:06;12.40;6.50
29093;DHT22;16167;48.768;14.984;2023-04-25T08:39:34;12.50;6.50
29093;DHT22;16167;48.768;14.984;2023-04-25T08:42:02;12.60;5.60
29093;DHT22;16167;48.768;14.984;2023-04-25T08:44:33;12.70;6.70
29093;DHT22;16167;48.768;14.984;2023-04-25T08:47:02;13.00;7.70
29093;DHT22;16167;48.768;14.984;2023-04-25T08:49:30;13.70;6.40
29093;DHT22;16167;48.768;14.984;2023-04-25T08:52:01;14.20;6.10
29093;DHT22;16167;48.768;14.984;2023-04-25T08:54:30;14.40;7.50
29093;DHT22;16167;48.768;14.984;2023-04-25T08:57:02;14.30;7.60
29093;DHT22;16167;48.768;14.984;2023-04-25T08:59:31;14.10;8.30
29093;DHT22;16167;48.768;14.984;2023-04-25T09:02:01;13.90;8.10
29093;DHT22;16167;48.768;14.984;2023-04-25T09:04:29;13.70;8.20
29093;DHT22;16167;48.768;14.984;2023-04-25T09:06:58;13.50;8.70
29093;DHT22;16167;48.768;14.984;2023-04-25T09:09:27;13.40;6.60
29093;DHT22;16167;48.768;14.984;2023-04-25T09:11:55;13.10;6.50
29093;DHT22;16167;48.768;14.984;2023-04-25T09:14:23;12.80;10.00
29093;DHT22;16167;48.768;14.984;2023-04-25T09:16:58;12.50;10.30
29093;DHT22;16167;48.768;14.984;2023-04-25T09:19:27;12.10;10.70
29093;DHT22;16167;48.768;14.984;2023-04-25T09:22:07;11.70;10.00
29093;DHT22;16167;48.768;14.984;2023-04-25T09:24:37;11.30;7.80
29093;DHT22;16167;48.768;14.984;2023-04-25T09:27:06;11.10;2.90
29093;DHT22;16167;48.768;14.984;2023-04-25T09:29:35;10.90;1.00
29093;DHT22;16167;48.768;14.984;2023-04-25T09:32:15;10.80;1.00
29093;DHT22;16167;48.768;14.984;2023-04-25T09:34:44;10.70;1.00
29093;DHT22;16167;48.768;14.984;2023-04-25T09:37:18;10.70;1.00
29093;DHT22;16167;48.768;14.984;2023-04-25T09:39:48;10.70;1.00
29093;DHT22;16167;48.768;14.984;2023-04-25T09:42:17;10.80;1.00
29093;DHT22;16167;48.768;14.984;2023-04-25T09:44:45;10.80;1.00
29093;DHT22;16167;48.768;14.984;2023-04-25T09:47:14;11.40;1.00
29093;DHT22;16167;48.768;14.984;2023-04-25T09:49:43;11.90;1.00
29093;DHT22;16167;48.768;14.984;2023-04-25T09:52:13;12.50;1.00
29093;DHT22;16167;48.768;14.984;2023-04-25T09:54:42;13.10;1.00
29093;DHT22;16167;48.768;14.984;2023-04-25T09:57:13;13.80;1.00
29093;DHT22;16167;48.768;14.984;2023-04-25T09:59:44;14.10;5.20
29093;DHT22;16167;48.768;14.984;2023-04-25T10:02:13;14.20;14.10
29093;DHT22;16167;48.768;14.984;2023-04-25T10:04:41;13.80;10.30
29093;DHT22;16167;48.768;14.984;2023-04-25T10:07:10;13.30;10.50
29093;DHT22;16167;48.768;14.984;2023-04-25T10:09:38;13.00;12.90
29093;DHT22;16167;48.768;14.984;2023-04-25T10:12:07;12.50;11.20
29093;DHT22;16167;48.768;14.984;2023-04-25T10:14:37;12.10;12.60
29093;DHT22;16167;48.768;14.984;2023-04-25T10:17:05;11.50;12.20
29093;DHT22;16167;48.768;14.984;2023-04-25T10:19:33;11.00;12.60
29093;DHT22;16167;48.768;14.984;2023-04-25T10:22:03;10.50;12.90
29093;DHT22;16167;48.768;14.984;2023-04-25T10:24:32;10.20;11.50
29093;DHT22;16167;48.768;14.984;2023-04-25T10:26:59;10.00;1.00
29093;DHT22;16167;48.768;14.984;2023-04-25T10:29:28;9.70;1.00
29093;DHT22;16167;48.768;14.984;2023-04-25T10:31:57;9.60;1.00
29093;DHT22;16167;48.768;14.984;2023-04-25T10:34:37;9.90;1.00
29093;DHT22;16167;48.768;14.984;2023-04-25T10:37:08;10.40;1.00
29093;DHT22;16167;48.768;14.984;2023-04-25T10:39:36;10.80;1.00
29093;DHT22;16167;48.768;14.984;2023-04-25T10:42:05;10.70;1.00
29093;DHT22;16167;48.768;14.984;2023-04-25T10:44:34;10.60;1.00
29093;DHT22;16167;48.768;14.984;2023-04-25T10:47:06;11.00;1.00
29093;DHT22;16167;48.768;14.984;2023-04-25T10:49:35;11.20;1.00
29093;DHT22;16167;48.768;14.984;2023-04-25T10:52:19;10.80;1.80
29093;DHT22;16167;48.768;14.984;2023-04-25T10:54:52;11.10;1.00
29093;DHT22;16167;48.768;14.984;2023-04-25T10:57:27;11.70;1.00
29093;DHT22;16167;48.768;14.984;2023-04-25T11:00:00;12.40;1.00
29093;DHT22;16167;48.768;14.984;2023-04-25T11:02:33;13.30;1.00
29093;DHT22;16167;48.768;14.984;2023-04-25T11:05:04;13.90;1.00
29093;DHT22;16167;48.768;14.984;2023-04-25T11:07:34;14.40;1.00
29093;DHT22;16167;48.768;14.984;2023-04-25T11:10:05;14.90;1.00
29093;DHT22;16167;48.768;14.984;2023-04-25T11:12:33;15.10;1.00
29093;DHT22;16167;48.768;14.984;2023-04-25T11:15:02;15.40;1.00
29093;DHT22;16167;48.768;14.984;2023-04-25T11:17:30;15.30;1.00
29093;DHT22;16167;48.768;14.984;2023-04-25T11:19:59;15.30;1.00
29093;DHT22;16167;48.768;14.984;2023-04-25T11:22:27;15.30;1.00
29093;DHT22;16167;48.768;14.984;2023-04-25T11:24:56;15.30;1.00
29093;DHT22;16167;48.768;14.984;2023-04-25T11:27:24;15.20;1.00
29093;DHT22;16167;48.768;14.984;2023-04-25T11:29:52;15.20;1.00
29093;DHT22;16167;48.768;14.984;2023-04-25T11:32:20;15.30;1.00
29093;DHT22;16167;48.768;14.984;2023-04-25T11:34:50;15.50;1.00
29093;DHT22;16167;48.768;14.984;2023-04-25T11:37:21;16.10;1.00
29093;DHT22;16167;48.768;14.984;2023-04-25T11:39:49;16.90;1.00
29093;DHT22;16167;48.768;14.984;2023-04-25T11:42:17;17.30;1.00
29093;DHT22;16167;48.768;14.984;2023-04-25T11:44:46;17.40;1.00
29093;DHT22;16167;48.768;14.984;2023-04-25T11:47:14;18.00;1.00
29093;DHT22;16167;48.768;14.984;2023-04-25T11:49:42;17.90;1.00
29093;DHT22;16167;48.768;14.984;2023-04-25T11:52:10;17.80;1.00
29093;DHT22;16167;48.768;14.984;2023-04-25T11:54:39;18.10;1.00
29093;DHT22;16167;48.768;14.984;2023-04-25T11:57:07;18.50;1.00
29093;DHT22;16167;48.768;14.984;2023-04-25T11:59:35;19.00;1.00
29093;DHT22;16167;48.768;14.984;2023-04-25T12:02:03;18.90;1.00
29093;DHT22;16167;48.768;14.984;2023-04-25T12:04:33;18.90;1.00
29093;DHT22;16167;48.768;14.984;2023-04-25T12:07:01;18.70;2.30
29093;DHT22;16167;48.768;14.984;2023-04-25T12:09:30;18.70;1.00
29093;DHT22;16167;48.768;14.984;2023-04-25T12:12:00;18.80;1.00
29093;DHT22;16167;48.768;14.984;2023-04-25T12:14:30;18.20;1.00
29093;DHT22;16167;48.768;14.984;2023-04-25T12:16:59;17.90;1.00
29093;DHT22;16167;48.768;14.984;2023-04-25T12:19:31;17.60;1.00
29093;DHT22;16167;48.768;14.984;2023-04-25T12:22:01;17.00;1.00
29093;DHT22;16167;48.768;14.984;2023-04-25T12:24:32;16.40;1.00
29093;DHT22;16167;48.768;14.984;2023-04-25T12:27:06;15.80;1.00
29093;DHT22;16167;48.768;14.984;2023-04-25T12:29:35;15.40;1.00
29093;DHT22;16167;48.768;14.984;2023-04-25T12:32:15;14.80;1.00
29093;DHT22;16167;48.768;14.984;2023-04-25T12:34:43;14.60;1.00
29093;DHT22;16167;48.768;14.984;2023-04-25T12:37:11;14.40;1.00
29093;DHT22;16167;48.768;14.984;2023-04-25T12:39:39;14.10;1.00
29093;DHT22;16167;48.768;14.984;2023-04-25T12:42:08;13.70;1.00
29093;DHT22;16167;48.768;14.984;2023-04-25T12:44:38;13.70;1.00
29093;DHT22;16167;48.768;14.984;2023-04-25T12:47:06;13.70;1.00
29093;DHT22;16167;48.768;14.984;2023-04-25T12:49:34;13.60;1.80
29093;DHT22;16167;48.768;14.984;2023-04-25T12:52:02;13.40;1.70
29093;DHT22;16167;48.768;14.984;2023-04-25T12:54:30;13.30;4.30
29093;DHT22;16167;48.768;14.984;2023-04-25T12:56:58;13.40;5.30
29093;DHT22;16167;48.768;14.984;2023-04-25T12:59:29;13.60;4.70
29093;DHT22;16167;48.768;14.984;2023-04-25T13:01:57;14.30;4.90
29093;DHT22;16167;48.768;14.984;2023-04-25T13:04:25;15.00;3.30
29093;DHT22;16167;48.768;14.984;2023-04-25T13:06:53;15.20;1.90
29093;DHT22;16167;48.768;14.984;2023-04-25T13:09:21;16.00;3.70
29093;DHT22;16167;48.768;14.984;2023-04-25T13:11:49;16.20;3.40
29093;DHT22;16167;48.768;14.984;2023-04-25T13:14:20;16.00;1.10
29093;DHT22;16167;48.768;14.984;2023-04-25T13:16:49;15.70;1.20
29093;DHT22;16167;48.768;14.984;2023-04-25T13:19:17;15.40;2.00
29093;DHT22;16167;48.768;14.984;2023-04-25T13:21:45;15.30;2.90
29093;DHT22;16167;48.768;14.984;2023-04-25T13:24:13;15.20;4.30
29093;DHT22;16167;48.768;14.984;2023-04-25T13:26:41;15.20;3.90
29093;DHT22;16167;48.768;14.984;2023-04-25T13:29:09;15.20;3.00
29093;DHT22;16167;48.768;14.984;2023-04-25T13:31:37;15.10;1.00
29093;DHT22;16167;48.768;14.984;2023-04-25T13:34:06;15.50;4.10
29093;DHT22;16167;48.768;14.984;2023-04-25T13:36:34;16.10;4.00
29093;DHT22;16167;48.768;14.984;2023-04-25T13:39:02;16.20;2.50
29093;DHT22;16167;48.768;14.984;2023-04-25T13:41:31;15.90;3.50
29093;DHT22;16167;48.768;14.984;2023-04-25T13:43:59;15.80;5.00
29093;DHT22;16167;48.768;14.984;2023-04-25T13:46:27;15.60;1.80
29093;DHT22;16167;48.768;14.984;2023-04-25T13:49:12;15.50;3.60
29093;DHT22;16167;48.768;14.984;2023-04-25T13:51:40;15.30;4.80
29093;DHT22;16167;48.768;14.984;2023-04-25T13:54:09;14.90;2.50
29093;DHT22;16167;48.768;14.984;2023-04-25T13:56:37;14.70;4.80
29093;DHT22;16167;48.768;14.984;2023-04-25T13:59:05;14.40;4.10
29093;DHT22;16167;48.768;14.984;2023-04-25T14:01:32;14.10;4.20
29093;DHT22;16167;48.768;14.984;2023-04-25T14:04:02;13.80;4.30
29093;DHT22;16167;48.768;14.984;2023-04-25T14:06:32;13.50;3.30
29093;DHT22;16167;48.768;14.984;2023-04-25T14:09:00;13.20;4.50
29093;DHT22;16167;48.768;14.984;2023-04-25T14:11:28;12.90;3.30
29093;DHT22;16167;48.768;14.984;2023-04-25T14:13:56;12.70;2.20
29093;DHT22;16167;48.768;14.984;2023-04-25T14:16:24;12.40;1.00
29093;DHT22;16167;48.768;14.984;2023-04-25T14:18:52;12.30;1.00
29093;DHT22;16167;48.768;14.984;2023-04-25T14:21:21;12.20;1.00
29093;DHT22;16167;48.768;14.984;2023-04-25T14:23:50;12.40;1.00
29093;DHT22;16167;48.768;14.984;2023-04-25T14:26:18;13.20;1.00
29093;DHT22;16167;48.768;14.984;2023-04-25T14:28:46;13.70;1.00
29093;DHT22;16167;48.768;14.984;2023-04-25T14:31:14;13.80;1.00
29093;DHT22;16167;48.768;14.984;2023-04-25T14:33:43;13.70;1.00
29093;DHT22;16167;48.768;14.984;2023-04-25T14:36:12;13.80;1.00
29093;DHT22;16167;48.768;14.984;2023-04-25T14:38:43;13.70;1.00
29093;DHT22;16167;48.768;14.984;2023-04-25T14:41:13;13.70;1.00
29093;DHT22;16167;48.768;14.984;2023-04-25T14:43:41;13.60;1.00
29093;DHT22;16167;48.768;14.984;2023-04-25T14:46:10;13.20;1.00
29093;DHT22;16167;48.768;14.984;2023-04-25T14:48:38;12.90;1.00
29093;DHT22;16167;48.768;14.984;2023-04-25T14:51:06;12.60;1.00
29093;DHT22;16167;48.768;14.984;2023-04-25T14:53:34;12.30;1.00
29093;DHT22;16167;48.768;14.984;2023-04-25T14:56:02;12.10;1.00
29093;DHT22;16167;48.768;14.984;2023-04-25T14:58:32;11.80;1.00
29093;DHT22;16167;48.768;14.984;2023-04-25T15:01:00;11.60;1.00
29093;DHT22;16167;48.768;14.984;2023-04-25T15:03:29;11.60;1.00
29093;DHT22;16167;48.768;14.984;2023-04-25T15:05:57;11.40;1.00
29093;DHT22;16167;48.768;14.984;2023-04-25T15:08:25;11.30;1.00
29093;DHT22;16167;48.768;14.984;2023-04-25T15:10:53;11.20;1.00
29093;DHT22;16167;48.768;14.984;2023-04-25T15:13:21;11.00;1.00
29093;DHT22;16167;48.768;14.984;2023-04-25T15:15:50;10.90;1.00
29093;DHT22;16167;48.768;14.984;2023-04-25T15:18:20;10.80;1.00
29093;DHT22;16167;48.768;14.984;2023-04-25T15:20:50;10.60;1.00
29093;DHT22;16167;48.768;14.984;2023-04-25T15:23:18;10.50;1.00
29093;DHT22;16167;48.768;14.984;2023-04-25T15:25:49;10.40;1.00
29093;DHT22;16167;48.768;14.984;2023-04-25T15:28:17;10.40;1.00
29093;DHT22;16167;48.768;14.984;2023-04-25T15:30:48;10.40;1.00
29093;DHT22;16167;48.768;14.984;2023-04-25T15:33:17;10.40;1.00
29093;DHT22;16167;48.768;14.984;2023-04-25T15:35:45;10.50;1.00
29093;DHT22;16167;48.768;14.984;2023-04-25T15:38:13;10.50;1.00
29093;DHT22;16167;48.768;14.984;2023-04-25T15:40:41;10.40;1.00